Time;durP1;ratioP1;P1;durP2;ratioP2;P2;SDS_P1;SDS_P2;PMS_P1;PMS_P2;Temp;Humidity;BMP_temperature;BMP_pressure;BME280_temperature;BME280_humidity;BME280_pressure;Samples;Min_cycle;Max_cycle;Signal;HPM_P1;HPM_P2
2024/01/08 00:01:17;;;;;;;0.80;0.50;;;;;;;-7.87;81.82;102268.25;4899742;29;20299;-67
2024/01/08 00:03:46;;;;;;;0.80;0.80;;;;;;;-7.85;81.60;102265.56;4894677;29;20222;-67
2024/01/08 00:06:17;;;;;;;1.20;0.95;;;;;;;-7.82;82.11;102263.69;4882819;29;20285;-69
2024/01/08 00:08:48;;;;;;;1.52;0.93;;;;;;;-7.90;82.07;102273.63;4895554;29;20249;-68
2024/01/08 00:11:18;;;;;;;1.05;0.80;;;;;;;-7.95;82.28;102272.91;4900278;29;20553;-66
2024/01/08 00:13:47;;;;;;;0.80;0.60;;;;;;;-7.88;82.88;102274.41;4892879;29;20255;-69
2024/01/08 00:16:16;;;;;;;0.80;0.60;;;;;;;-7.88;82.20;102277.03;4905981;29;20288;-68
2024/01/08 00:18:46;;;;;;;2.05;1.33;;;;;;;-7.91;82.43;102277.16;4885588;29;20253;-68
2024/01/08 00:21:15;;;;;;;6.20;3.08;;;;;;;-7.99;82.49;102279.19;4893907;29;20203;-69
2024/01/08 00:23:44;;;;;;;0.80;0.70;;;;;;;-7.97;82.60;102280.84;4885615;29;20205;-68
2024/01/08 00:26:15;;;;;;;0.80;0.65;;;;;;;-7.98;83.53;102271.22;4898775;29;20312;-66
2024/01/08 00:28:45;;;;;;;0.80;0.60;;;;;;;-7.98;82.96;102275.63;4896236;29;20198;-66
2024/01/08 00:31:14;;;;;;;0.85;0.70;;;;;;;-8.00;82.53;102277.44;4895014;29;20217;-68
2024/01/08 00:33:43;;;;;;;1.08;0.98;;;;;;;-8.02;82.89;102271.38;4917510;29;20540;-67
2024/01/08 00:36:12;;;;;;;1.65;1.00;;;;;;;-8.00;83.33;102278.31;4905186;29;20246;-68
2024/01/08 00:38:44;;;;;;;0.80;0.52;;;;;;;-8.01;83.50;102283.59;4892656;29;20580;-69
2024/01/08 00:41:14;;;;;;;2.50;2.17;;;;;;;-8.01;83.22;102287.09;4885919;29;20202;-68
2024/01/08 00:43:44;;;;;;;2.25;2.15;;;;;;;-8.08;83.88;102282.06;4899263;29;20183;-69
2024/01/08 00:46:12;;;;;;;1.10;0.93;;;;;;;-8.12;83.88;102288.34;4894350;29;20273;-68
2024/01/08 00:48:41;;;;;;;0.90;0.70;;;;;;;-8.12;84.19;102283.09;4898044;29;20280;-69
2024/01/08 00:51:10;;;;;;;1.38;1.23;;;;;;;-8.05;83.56;102284.63;4892497;29;20749;-68
2024/01/08 00:53:39;;;;;;;0.80;0.60;;;;;;;-8.08;82.86;102285.56;4887039;29;20674;-69
2024/01/08 00:56:08;;;;;;;2.63;2.47;;;;;;;-8.11;84.23;102285.69;4885166;29;20218;-69
2024/01/08 00:58:41;;;;;;;1.27;1.17;;;;;;;-8.12;84.22;102280.47;4908239;29;20611;-69
2024/01/08 01:01:12;;;;;;;6.40;1.65;;;;;;;-8.08;83.87;102296.06;4891605;29;20258;-68
2024/01/08 01:03:41;;;;;;;0.80;0.60;;;;;;;-8.15;84.08;102298.97;4880308;29;20738;-69
2024/01/08 01:06:10;;;;;;;1.52;1.35;;;;;;;-8.09;84.55;102302.25;4886188;29;20694;-67
2024/01/08 01:08:39;;;;;;;0.80;0.60;;;;;;;-8.11;83.97;102297.94;4883745;29;20214;-71
2024/01/08 01:11:07;;;;;;;0.80;0.60;;;;;;;-8.05;83.47;102295.13;4898565;29;20198;-68
2024/01/08 01:13:38;;;;;;;1.13;1.02;;;;;;;-7.99;83.27;102306.28;4900113;29;20229;-68
2024/01/08 01:16:07;;;;;;;0.80;0.50;;;;;;;-8.06;83.74;102303.91;4904268;29;20232;-68
2024/01/08 01:18:39;;;;;;;8.93;2.63;;;;;;;-8.02;83.52;102310.78;4898263;29;20563;-68
2024/01/08 01:21:08;;;;;;;1.27;1.17;;;;;;;-8.04;83.40;102307.38;4887316;29;20209;-68
2024/01/08 01:23:37;;;;;;;0.80;0.57;;;;;;;-8.09;83.38;102304.03;4890664;29;20255;-66
2024/01/08 01:26:06;;;;;;;1.88;1.77;;;;;;;-8.08;83.58;102303.09;4897943;29;20229;-68
2024/01/08 01:28:35;;;;;;;1.15;1.05;;;;;;;-8.05;83.53;102300.38;4898600;29;20609;-67
2024/01/08 01:31:06;;;;;;;1.70;1.52;;;;;;;-8.09;83.32;102307.50;4879738;29;20214;-68
2024/01/08 01:33:34;;;;;;;1.40;1.27;;;;;;;-8.03;82.68;102314.31;4882290;29;20194;-67
2024/01/08 01:36:08;;;;;;;0.90;0.80;;;;;;;-8.04;82.41;102308.22;4896122;29;20223;-68
2024/01/08 01:38:38;;;;;;;1.48;1.38;;;;;;;-8.06;82.38;102312.66;4898017;29;20669;-66
2024/01/08 01:41:07;;;;;;;0.82;0.60;;;;;;;-8.09;82.56;102314.53;4892849;29;20678;-68
2024/01/08 01:43:36;;;;;;;1.30;1.20;;;;;;;-8.05;81.91;102308.28;4880969;29;20205;-68
2024/01/08 01:46:16;;;;;;;1.00;0.80;;;;;;;-8.03;81.92;102320.44;4901430;29;20257;-69
2024/01/08 01:48:45;;;;;;;0.80;0.50;;;;;;;-8.08;82.12;102324.09;4902289;29;20744;-68
2024/01/08 01:51:14;;;;;;;3.03;1.15;;;;;;;-8.06;81.92;102324.94;4916140;29;20193;-68
2024/01/08 01:53:43;;;;;;;1.17;0.93;;;;;;;-8.05;81.79;102331.91;4913440;29;20213;-68
2024/01/08 01:56:12;;;;;;;0.80;0.50;;;;;;;-8.00;81.74;102330.00;4903277;29;20222;-68
2024/01/08 01:58:42;;;;;;;4.30;0.93;;;;;;;-8.02;81.76;102322.16;4902849;29;20190;-68
2024/01/08 02:01:12;;;;;;;1.70;1.50;;;;;;;-8.02;81.63;102321.28;4888888;29;20689;-68
2024/01/08 02:03:42;;;;;;;0.80;0.50;;;;;;;-8.01;81.38;102328.28;4894983;29;20198;-68
2024/01/08 02:06:12;;;;;;;1.27;1.17;;;;;;;-8.03;81.24;102320.44;4903969;29;20206;-67
2024/01/08 02:08:41;;;;;;;1.45;1.35;;;;;;;-8.06;81.37;102330.19;4904195;29;20222;-68
2024/01/08 02:11:10;;;;;;;1.60;1.50;;;;;;;-8.05;81.61;102321.41;4897138;29;20194;-68
2024/01/08 02:13:39;;;;;;;0.80;0.50;;;;;;;-8.05;81.16;102327.53;4903418;29;20258;-67
2024/01/08 02:16:08;;;;;;;1.88;1.33;;;;;;;-8.04;81.39;102333.63;4911976;29;20686;-69
2024/01/08 02:18:38;;;;;;;0.80;0.60;;;;;;;-8.08;81.00;102337.25;4888766;29;20194;-67
2024/01/08 02:21:07;;;;;;;1.17;1.08;;;;;;;-8.05;81.24;102331.91;4908929;29;20200;-69
2024/01/08 02:23:38;;;;;;;0.80;0.60;;;;;;;-8.08;81.04;102338.09;4902283;29;20190;-68
2024/01/08 02:26:07;;;;;;;3.70;3.30;;;;;;;-8.08;81.75;102342.50;4902932;29;20218;-67
2024/01/08 02:28:36;;;;;;;0.80;0.50;;;;;;;-8.02;80.57;102335.28;4904387;29;20198;-66
2024/01/08 02:31:06;;;;;;;0.80;0.50;;;;;;;-8.08;81.40;102342.50;4888288;29;20273;-68
2024/01/08 02:33:39;;;;;;;0.80;0.60;;;;;;;-8.12;80.89;102347.00;4901115;29;20387;-67
2024/01/08 02:36:08;;;;;;;3.58;3.25;;;;;;;-8.06;81.00;102348.56;4893220;29;20241;-68
2024/01/08 02:38:39;;;;;;;1.45;1.35;;;;;;;-8.08;80.29;102350.38;4901378;29;20289;-66
2024/01/08 02:41:10;;;;;;;2.13;1.92;;;;;;;-8.05;80.31;102352.94;4916294;29;20679;-68
2024/01/08 02:43:39;;;;;;;0.80;0.50;;;;;;;-8.01;80.25;102355.41;4900036;29;20194;-67
2024/01/08 02:46:08;;;;;;;1.00;0.90;;;;;;;-7.98;79.26;102365.81;4891897;29;20215;-67
2024/01/08 02:48:37;;;;;;;1.10;0.90;;;;;;;-8.04;80.04;102362.53;4892122;29;20206;-66
2024/01/08 02:51:06;;;;;;;0.80;0.60;;;;;;;-8.12;80.92;102369.78;4915158;29;20205;-67
2024/01/08 02:53:35;;;;;;;0.80;0.55;;;;;;;-8.07;79.69;102373.97;4910088;29;20191;-66
2024/01/08 02:56:06;;;;;;;0.80;0.60;;;;;;;-8.05;80.00;102374.81;4905203;29;20213;-65
2024/01/08 02:58:37;;;;;;;0.80;0.60;;;;;;;-8.01;79.08;102365.06;4906004;29;20194;-67
2024/01/08 03:01:06;;;;;;;3.28;3.08;;;;;;;-8.01;79.41;102380.81;4886012;29;20215;-68
2024/01/08 03:03:35;;;;;;;1.40;1.15;;;;;;;-8.05;79.26;102376.56;4881611;29;20207;-68
2024/01/08 03:06:04;;;;;;;0.80;0.50;;;;;;;-8.09;80.25;102367.06;4885604;29;20228;-67
2024/01/08 03:08:33;;;;;;;4.90;4.45;;;;;;;-8.02;79.80;102381.72;4892720;29;20781;-68
2024/01/08 03:11:02;;;;;;;0.90;0.70;;;;;;;-8.01;79.34;102380.81;4879620;29;20286;-67
2024/01/08 03:13:32;;;;;;;0.85;0.75;;;;;;;-7.99;79.54;102389.53;4895943;29;20203;-67
2024/01/08 03:16:02;;;;;;;2.85;2.65;;;;;;;-8.07;78.93;102399.38;4908275;29;20222;-66
2024/01/08 03:18:30;;;;;;;0.80;0.52;;;;;;;-8.06;79.05;102393.22;4899611;29;20564;-67
2024/01/08 03:21:02;;;;;;;1.02;0.93;;;;;;;-8.07;79.14;102397.63;4890328;29;20202;-68
2024/01/08 03:23:31;;;;;;;1.75;0.70;;;;;;;-8.00;78.55;102398.31;4881358;29;20195;-68
2024/01/08 03:26:00;;;;;;;2.90;2.70;;;;;;;-8.00;78.44;102393.91;4901409;29;20221;-66
2024/01/08 03:28:30;;;;;;;1.77;0.80;;;;;;;-8.08;78.23;102400.28;4900261;29;20213;-66
2024/01/08 03:31:01;;;;;;;0.80;0.70;;;;;;;-8.05;78.82;102405.47;4899653;29;20200;-67
2024/01/08 03:33:30;;;;;;;1.17;1.05;;;;;;;-7.99;77.24;102400.88;4882993;29;20210;-67
2024/01/08 03:35:59;;;;;;;2.75;1.55;;;;;;;-8.01;77.63;102402.69;4891909;29;20214;-67
2024/01/08 03:38:28;;;;;;;0.80;0.60;;;;;;;-7.95;76.35;102401.66;4895450;29;20187;-67
2024/01/08 03:40:57;;;;;;;1.35;1.25;;;;;;;-7.99;76.79;102410.53;4905539;29;20289;-68
2024/01/08 03:43:26;;;;;;;3.97;2.50;;;;;;;-7.93;75.83;102410.34;4904204;29;20220;-69
2024/01/08 03:45:56;;;;;;;0.80;0.60;;;;;;;-7.94;76.16;102427.03;4899270;29;20246;-68
2024/01/08 03:48:26;;;;;;;0.80;0.60;;;;;;;-7.93;75.96;102428.72;4899344;29;20293;-68
2024/01/08 03:50:55;;;;;;;1.35;1.25;;;;;;;-7.97;75.69;102435.84;4901500;29;20669;-68
2024/01/08 03:53:24;;;;;;;0.80;0.50;;;;;;;-7.96;75.96;102431.47;4918305;29;20190;-66
2024/01/08 03:55:53;;;;;;;1.00;0.80;;;;;;;-7.97;76.15;102435.00;4908401;29;20321;-68
2024/01/08 03:58:22;;;;;;;0.80;0.50;;;;;;;-8.01;76.34;102428.97;4899388;29;20190;-67
2024/01/08 04:00:50;;;;;;;3.72;3.42;;;;;;;-8.02;76.52;102436.88;4899094;29;20226;-68
2024/01/08 04:03:21;;;;;;;0.80;0.50;;;;;;;-7.93;75.73;102447.13;4899006;29;20246;-67
2024/01/08 04:05:51;;;;;;;1.70;1.60;;;;;;;-7.93;76.13;102452.38;4898985;29;20310;-67
2024/01/08 04:08:19;;;;;;;3.00;2.15;;;;;;;-7.93;75.71;102457.63;4898632;29;20217;-67
2024/01/08 04:10:49;;;;;;;0.80;0.60;;;;;;;-7.93;76.34;102455.88;4900389;29;20200;-68
2024/01/08 04:13:18;;;;;;;2.97;2.88;;;;;;;-7.93;75.79;102447.97;4913053;29;20654;-69
2024/01/08 04:15:47;;;;;;;0.80;0.52;;;;;;;-7.88;76.21;102450.47;4890008;29;20286;-68
2024/01/08 04:18:16;;;;;;;3.45;1.45;;;;;;;-7.89;75.42;102454.03;4891446;29;20197;-68
2024/01/08 04:20:49;;;;;;;1.60;1.20;;;;;;;-7.93;75.70;102455.00;4881983;29;20203;-67
2024/01/08 04:23:18;;;;;;;0.80;0.50;;;;;;;-7.89;75.86;102456.66;4893413;29;20203;-67
2024/01/08 04:25:48;;;;;;;1.33;1.23;;;;;;;-7.96;76.32;102458.59;4897556;29;20206;-66
2024/01/08 04:28:19;;;;;;;1.08;0.98;;;;;;;-8.04;76.51;102471.13;4901916;29;20209;-67
2024/01/08 04:30:48;;;;;;;0.80;0.60;;;;;;;-8.01;77.33;102464.88;4897626;29;20664;-67
2024/01/08 04:33:17;;;;;;;1.25;1.13;;;;;;;-8.01;77.01;102468.38;4895399;29;20547;-67
2024/01/08 04:35:47;;;;;;;1.60;1.50;;;;;;;-7.94;76.86;102461.19;4897009;29;20229;-68
2024/01/08 04:38:17;;;;;;;0.80;0.60;;;;;;;-7.92;76.76;102475.13;4886293;29;20619;-68
2024/01/08 04:40:46;;;;;;;3.97;3.65;;;;;;;-7.98;77.00;102468.28;4891371;29;20198;-65
2024/01/08 04:43:15;;;;;;;2.75;2.15;;;;;;;-7.95;76.85;102475.22;4904506;29;20198;-66
2024/01/08 04:45:43;;;;;;;1.35;1.25;;;;;;;-7.95;77.38;102485.75;4898445;29;20252;-66
2024/01/08 04:48:13;;;;;;;0.90;0.80;;;;;;;-7.93;76.56;102476.03;4904800;29;20218;-67
2024/01/08 04:50:42;;;;;;;0.80;0.65;;;;;;;-7.96;76.89;102489.25;4898682;29;20681;-67
2024/01/08 04:53:11;;;;;;;1.23;1.13;;;;;;;-8.00;77.91;102487.63;4909006;29;20248;-67
2024/01/08 04:55:41;;;;;;;1.15;1.02;;;;;;;-7.94;77.41;102495.34;4913002;29;20221;-67
2024/01/08 04:58:10;;;;;;;1.77;1.67;;;;;;;-8.01;77.94;102492.03;4887064;29;20208;-68
2024/01/08 05:00:39;;;;;;;2.35;2.25;;;;;;;-8.03;78.02;102496.44;4901504;29;20198;-68
2024/01/08 05:03:10;;;;;;;0.80;0.60;;;;;;;-7.98;78.51;102502.44;4897705;29;20675;-67
2024/01/08 05:05:39;;;;;;;0.80;0.60;;;;;;;-7.97;78.44;102498.91;4905098;29;20217;-66
2024/01/08 05:08:08;;;;;;;2.55;2.25;;;;;;;-8.04;78.88;102499.16;4898357;29;20218;-68
2024/01/08 05:10:37;;;;;;;2.65;2.55;;;;;;;-8.02;79.17;102508.69;4885718;29;20204;-66
2024/01/08 05:13:07;;;;;;;1.27;1.13;;;;;;;-8.11;79.40;102500.22;4894646;29;20701;-67
2024/01/08 05:15:35;;;;;;;1.02;0.93;;;;;;;-8.20;80.66;102503.97;4883453;29;20270;-68
2024/01/08 05:18:05;;;;;;;0.93;0.82;;;;;;;-8.28;80.42;102503.34;4873777;29;20201;-68
2024/01/08 05:20:35;;;;;;;0.80;0.50;;;;;;;-8.16;80.90;102513.50;4889266;29;20205;-67
2024/01/08 05:23:06;;;;;;;0.80;0.50;;;;;;;-8.14;80.20;102502.94;4898073;29;20230;-66
2024/01/08 05:25:35;;;;;;;0.80;0.63;;;;;;;-8.21;81.31;102510.13;4890373;29;20230;-68
2024/01/08 05:28:06;;;;;;;1.13;1.02;;;;;;;-8.18;81.03;102506.56;4879671;29;20198;-67
2024/01/08 05:30:35;;;;;;;2.35;2.15;;;;;;;-8.19;80.90;102510.09;4879186;29;20710;-68
2024/01/08 05:33:05;;;;;;;1.00;0.80;;;;;;;-8.21;80.99;102498.75;4880395;29;20203;-68
2024/01/08 05:35:34;;;;;;;1.65;1.55;;;;;;;-8.12;80.83;102496.72;4887383;29;20453;-68
2024/01/08 05:38:03;;;;;;;2.65;2.15;;;;;;;-8.10;80.33;102508.06;4890512;29;20724;-67
2024/01/08 05:40:32;;;;;;;0.90;0.80;;;;;;;-8.10;80.34;102512.44;4898026;29;20225;-67
2024/01/08 05:43:01;;;;;;;0.80;0.60;;;;;;;-8.22;81.67;102504.91;4880658;29;20214;-68
2024/01/08 05:45:32;;;;;;;0.90;0.77;;;;;;;-8.23;81.50;102508.47;4892113;29;20661;-67
2024/01/08 05:48:00;;;;;;;0.80;0.50;;;;;;;-8.20;81.52;102511.00;4885721;29;20206;-68
2024/01/08 05:50:29;;;;;;;1.25;1.13;;;;;;;-8.16;82.18;102518.75;4897431;29;20225;-67
2024/01/08 05:53:00;;;;;;;1.80;0.93;;;;;;;-8.16;82.24;102517.88;4897776;29;20196;-68
2024/01/08 05:55:29;;;;;;;1.42;1.33;;;;;;;-8.17;81.90;102521.41;4885791;29;20636;-68
2024/01/08 05:57:57;;;;;;;0.80;0.60;;;;;;;-8.14;81.83;102521.34;4897507;29;20202;-68
2024/01/08 06:00:26;;;;;;;0.80;0.50;;;;;;;-8.14;82.08;102531.84;4904605;29;20197;-67
2024/01/08 06:02:56;;;;;;;2.55;1.70;;;;;;;-8.17;81.69;102531.91;4898192;29;20205;-68
2024/01/08 06:05:25;;;;;;;0.98;0.88;;;;;;;-8.12;82.54;102530.00;4888547;29;20282;-67
2024/01/08 06:07:54;;;;;;;1.48;1.38;;;;;;;-8.16;82.71;102531.00;4883419;29;20263;-66
2024/01/08 06:10:23;;;;;;;1.23;0.90;;;;;;;-8.24;83.01;102539.13;4880478;29;20214;-67
2024/01/08 06:12:52;;;;;;;0.88;0.65;;;;;;;-8.11;82.91;102545.75;4877990;29;20202;-68
2024/01/08 06:15:21;;;;;;;3.00;2.17;;;;;;;-8.15;83.25;102551.13;4916691;29;20613;-67
2024/01/08 06:17:53;;;;;;;0.80;0.50;;;;;;;-8.18;83.23;102559.94;4908409;29;20198;-67
2024/01/08 06:20:23;;;;;;;0.80;0.50;;;;;;;-8.15;83.31;102553.75;4899929;29;20194;-69
2024/01/08 06:22:52;;;;;;;1.08;0.80;;;;;;;-8.13;83.19;102554.59;4904223;29;20199;-68
2024/01/08 06:25:21;;;;;;;1.60;1.13;;;;;;;-8.17;83.29;102563.41;4886322;29;20230;-68
2024/01/08 06:27:50;;;;;;;0.80;0.70;;;;;;;-8.20;83.90;102560.91;4882443;29;20179;-67
2024/01/08 06:30:19;;;;;;;0.80;0.50;;;;;;;-8.33;85.46;102563.03;4871027;29;20219;-68
2024/01/08 06:32:48;;;;;;;0.80;0.55;;;;;;;-8.38;86.43;102565.78;4895733;29;20190;-68
2024/01/08 06:35:17;;;;;;;0.80;0.50;;;;;;;-8.49;87.08;102567.81;4900986;29;20233;-68
2024/01/08 06:37:48;;;;;;;0.80;0.70;;;;;;;-8.42;86.92;102576.38;4900916;29;20193;-68
2024/01/08 06:40:18;;;;;;;1.08;0.98;;;;;;;-8.46;86.98;102572.97;4901033;29;20678;-67
2024/01/08 06:42:51;;;;;;;0.80;0.70;;;;;;;-8.55;88.34;102575.00;4892771;29;20187;-67
2024/01/08 06:45:29;;;;;;;0.80;0.50;;;;;;;-8.50;88.90;102576.59;4905250;29;20209;-68
2024/01/08 06:47:58;;;;;;;2.58;2.30;;;;;;;-8.51;88.26;102580.13;4916761;29;20190;-68
2024/01/08 06:50:27;;;;;;;4.60;2.47;;;;;;;-8.59;89.37;102587.34;4892403;29;20221;-67
2024/01/08 06:52:57;;;;;;;1.38;1.25;;;;;;;-8.56;88.85;102583.75;4919399;29;20573;-68
2024/01/08 06:55:26;;;;;;;0.80;0.50;;;;;;;-8.51;89.48;102593.25;4903073;29;20214;-67
2024/01/08 06:57:55;;;;;;;0.80;0.60;;;;;;;-8.63;89.54;102585.69;4906224;29;20701;-67
2024/01/08 07:00:26;;;;;;;2.15;2.05;;;;;;;-8.59;90.02;102591.72;4901307;29;20186;-67
2024/01/08 07:02:55;;;;;;;0.80;0.55;;;;;;;-8.64;90.04;102602.34;4894722;29;20199;-67
2024/01/08 07:05:25;;;;;;;3.63;3.42;;;;;;;-8.64;91.01;102604.97;4896246;29;20635;-68
2024/01/08 07:07:54;;;;;;;2.47;2.38;;;;;;;-8.64;90.95;102607.59;4899790;29;20661;-67
2024/01/08 07:10:24;;;;;;;2.13;1.73;;;;;;;-8.68;91.25;102610.34;4900223;29;20198;-67
2024/01/08 07:12:53;;;;;;;0.80;0.50;;;;;;;-8.59;90.72;102607.47;4904872;29;20210;-66
2024/01/08 07:15:40;;;;;;;1.65;1.55;;;;;;;-8.61;91.30;102614.50;4900749;29;20221;-66
2024/01/08 07:18:10;;;;;;;3.10;2.90;;;;;;;-8.62;91.03;102624.19;4894018;29;20293;-67
2024/01/08 07:20:40;;;;;;;1.13;1.02;;;;;;;-8.61;91.39;102623.25;4899698;29;20194;-67
2024/01/08 07:23:11;;;;;;;4.35;4.15;;;;;;;-8.65;91.98;102618.97;4911693;29;20197;-68
2024/01/08 07:25:42;;;;;;;2.03;1.92;;;;;;;-8.65;91.55;102632.09;4881427;29;20273;-67
2024/01/08 07:28:12;;;;;;;5.78;5.47;;;;;;;-8.64;91.50;102625.97;4895154;29;20213;-67
2024/01/08 07:30:41;;;;;;;0.80;0.60;;;;;;;-8.61;91.85;102628.50;4898574;29;20206;-67
2024/01/08 07:33:10;;;;;;;0.80;0.50;;;;;;;-8.61;92.16;102638.13;4890682;29;20255;-67
2024/01/08 07:35:39;;;;;;;2.05;1.95;;;;;;;-8.63;92.16;102630.31;4893849;29;20304;-66
2024/01/08 07:38:08;;;;;;;2.30;2.08;;;;;;;-8.63;92.38;102643.44;4902055;29;20228;-65
2024/01/08 07:40:37;;;;;;;0.80;0.65;;;;;;;-8.53;92.47;102644.94;4902955;29;20198;-67
2024/01/08 07:43:07;;;;;;;7.80;5.85;;;;;;;-8.63;92.48;102643.44;4895458;29;20213;-67
2024/01/08 07:45:36;;;;;;;4.88;2.55;;;;;;;-8.66;92.86;102646.13;4893333;29;20249;-67
2024/01/08 07:48:05;;;;;;;1.00;0.90;;;;;;;-8.57;93.06;102643.31;4902413;29;20202;-68
2024/01/08 07:50:34;;;;;;;0.82;0.68;;;;;;;-8.54;92.11;102643.22;4900024;29;20241;-66
2024/01/08 07:53:04;;;;;;;1.98;1.88;;;;;;;-8.58;92.56;102657.31;4909442;29;20285;-65
2024/01/08 07:55:33;;;;;;;3.08;2.03;;;;;;;-8.54;92.79;102658.09;4917055;29;20225;-67
2024/01/08 07:58:02;;;;;;;1.52;1.42;;;;;;;-8.54;92.56;102653.72;4892193;29;20199;-67
2024/01/08 08:00:32;;;;;;;1.10;1.00;;;;;;;-8.47;91.90;102655.28;4900030;29;20218;-66
2024/01/08 08:03:01;;;;;;;0.80;0.57;;;;;;;-8.45;92.27;102669.25;4892770;29;20201;-66
2024/01/08 08:05:30;;;;;;;1.33;1.23;;;;;;;-8.39;92.50;102673.47;4892387;29;20225;-66
2024/01/08 08:07:59;;;;;;;1.17;0.98;;;;;;;-8.30;91.38;102677.63;4899110;29;20506;-68
2024/01/08 08:10:29;;;;;;;0.80;0.50;;;;;;;-8.25;91.72;102687.09;4899515;29;20226;-66
2024/01/08 08:12:58;;;;;;;0.80;0.70;;;;;;;-8.17;91.73;102687.75;4903600;29;20202;-66
2024/01/08 08:15:26;;;;;;;2.10;2.00;;;;;;;-8.20;91.44;102686.97;4899610;29;20281;-67
2024/01/08 08:17:56;;;;;;;1.90;1.80;;;;;;;-8.14;91.22;102689.44;4899431;29;20572;-64
2024/01/08 08:20:31;;;;;;;1.13;1.02;;;;;;;-8.16;91.24;102693.88;4885209;29;20190;-67
2024/01/08 08:23:00;;;;;;;2.22;1.52;;;;;;;-8.16;91.34;102697.34;4894184;29;20273;-67
2024/01/08 08:25:29;;;;;;;1.90;1.80;;;;;;;-7.95;90.85;102709.09;4890950;29;20277;-67
2024/01/08 08:28:00;;;;;;;0.80;0.50;;;;;;;-7.95;90.97;102716.97;4890485;29;20206;-66
2024/01/08 08:30:29;;;;;;;0.80;0.50;;;;;;;-7.96;90.85;102716.09;4884148;29;20618;-65
2024/01/08 08:32:59;;;;;;;3.85;2.33;;;;;;;-7.84;90.78;102725.41;4897522;29;20218;-66
2024/01/08 08:35:29;;;;;;;0.80;0.50;;;;;;;-7.91;89.77;102722.09;4898418;29;20308;-67
2024/01/08 08:38:01;;;;;;;3.88;3.47;;;;;;;-7.80;89.59;102727.09;4896012;29;20186;-68
2024/01/08 08:40:30;;;;;;;5.57;1.98;;;;;;;-7.80;89.30;102728.84;4890738;29;20669;-67
2024/01/08 08:42:59;;;;;;;1.60;1.50;;;;;;;-7.78;89.02;102737.53;4896977;29;20661;-67
2024/01/08 08:45:28;;;;;;;29.25;2.60;;;;;;;-7.73;89.27;102738.28;4894179;29;20632;-67
2024/01/08 08:47:58;;;;;;;1.13;1.02;;;;;;;-7.71;89.16;102745.25;4898541;29;20202;-67
2024/01/08 08:50:28;;;;;;;0.80;0.50;;;;;;;-7.67;88.10;102744.25;4895065;29;20237;-66
2024/01/08 08:52:57;;;;;;;1.52;1.40;;;;;;;-7.65;88.21;102738.97;4899671;29;20223;-69
2024/01/08 08:55:26;;;;;;;0.93;0.80;;;;;;;-7.65;87.67;102742.44;4882804;29;20648;-67
2024/01/08 08:57:54;;;;;;;1.95;1.30;;;;;;;-7.57;87.78;102745.72;4885794;29;20702;-67
2024/01/08 09:00:23;;;;;;;1.05;0.95;;;;;;;-7.50;87.59;102744.66;4888163;29;20203;-68
2024/01/08 09:02:52;;;;;;;0.90;0.50;;;;;;;-7.35;87.38;102753.88;4879423;29;20199;-66
2024/01/08 09:05:23;;;;;;;0.80;0.65;;;;;;;-7.28;86.68;102750.19;4880989;29;20591;-66
2024/01/08 09:08:05;;;;;;;0.80;0.50;;;;;;;-7.13;86.72;102756.78;4893222;29;20209;-68
2024/01/08 09:10:34;;;;;;;2.00;1.35;;;;;;;-7.07;85.83;102752.19;4890568;29;20298;-66
2024/01/08 09:13:03;;;;;;;0.80;0.60;;;;;;;-6.96;86.04;102757.13;4898740;29;20198;-68
2024/01/08 09:15:32;;;;;;;5.72;5.35;;;;;;;-6.94;84.29;102768.50;4890656;29;20639;-67
2024/01/08 09:18:02;;;;;;;1.50;1.40;;;;;;;-6.98;84.73;102764.25;4899895;29;20198;-67
2024/01/08 09:20:33;;;;;;;0.93;0.82;;;;;;;-6.84;84.92;102769.09;4884939;29;20244;-67
2024/01/08 09:23:02;;;;;;;1.38;1.27;;;;;;;-6.78;83.49;102772.41;4898261;29;20190;-65
2024/01/08 09:25:31;;;;;;;0.80;0.50;;;;;;;-6.83;82.88;102776.09;4898054;29;20292;-67
2024/01/08 09:28:00;;;;;;;2.55;2.35;;;;;;;-6.70;82.81;102777.44;4879599;29;20199;-66
2024/01/08 09:30:30;;;;;;;1.27;1.15;;;;;;;-6.65;82.63;102784.28;4897054;29;20204;-66
2024/01/08 09:32:59;;;;;;;1.02;0.93;;;;;;;-6.61;81.70;102791.19;4899458;29;20562;-67
2024/01/08 09:35:28;;;;;;;0.80;0.60;;;;;;;-6.51;81.44;102793.53;4897964;29;20229;-67
2024/01/08 09:37:58;;;;;;;0.80;0.57;;;;;;;-6.44;81.42;102795.09;4884145;29;20206;-67
2024/01/08 09:40:29;;;;;;;0.80;0.70;;;;;;;-6.41;80.85;102794.97;4896648;29;20202;-67
2024/01/08 09:43:00;;;;;;;2.00;1.08;;;;;;;-6.28;80.09;102806.84;4889923;29;20277;-66
2024/01/08 09:45:30;;;;;;;1.55;1.45;;;;;;;-6.38;79.58;102802.78;4883534;29;20226;-66
2024/01/08 09:47:59;;;;;;;0.80;0.50;;;;;;;-6.40;79.75;102802.84;4884256;29;20205;-67
2024/01/08 09:50:29;;;;;;;1.60;1.50;;;;;;;-6.33;78.91;102799.09;4886189;29;20222;-67
2024/01/08 09:52:59;;;;;;;1.40;1.05;;;;;;;-6.25;77.59;102799.75;4892780;29;20202;-66
2024/01/08 09:55:28;;;;;;;0.80;0.50;;;;;;;-6.23;76.68;102799.66;4897856;29;20249;-66
2024/01/08 09:57:57;;;;;;;1.17;1.08;;;;;;;-6.22;76.43;102802.28;4890569;29;20199;-66
2024/01/08 10:00:26;;;;;;;1.58;1.48;;;;;;;-6.13;76.27;102800.25;4899120;29;20250;-66
2024/01/08 10:02:56;;;;;;;1.60;1.50;;;;;;;-5.99;76.10;102803.28;4887151;29;20603;-67
2024/01/08 10:05:28;;;;;;;0.90;0.70;;;;;;;-5.83;75.06;102799.22;4897290;29;20257;-66
2024/01/08 10:08:01;;;;;;;0.80;0.50;;;;;;;-5.75;75.14;102807.72;4895870;29;20190;-67
2024/01/08 10:10:30;;;;;;;0.80;0.60;;;;;;;-5.81;72.90;102808.78;4894508;29;20199;-65
2024/01/08 10:12:59;;;;;;;2.83;2.35;;;;;;;-5.87;72.34;102803.78;4894472;29;20223;-67
2024/01/08 10:15:28;;;;;;;1.27;0.95;;;;;;;-5.83;72.59;102804.50;4899746;29;20226;-65
2024/01/08 10:18:01;;;;;;;4.53;4.20;;;;;;;-5.56;71.70;102795.63;4900904;29;20281;-67
2024/01/08 10:20:31;;;;;;;1.95;1.85;;;;;;;-5.49;71.19;102804.22;4893396;29;20729;-66
2024/01/08 10:23:09;;;;;;;0.80;0.70;;;;;;;-5.60;70.64;102795.78;4887158;29;20195;-67
2024/01/08 10:25:39;;;;;;;0.80;0.63;;;;;;;-5.47;70.36;102803.22;4893069;29;20236;-67
2024/01/08 10:28:10;;;;;;;1.75;1.65;;;;;;;-5.46;68.63;102796.19;4894334;29;20565;-66
2024/01/08 10:30:40;;;;;;;0.80;0.50;;;;;;;-5.53;68.34;102802.59;4896341;29;20246;-65
2024/01/08 10:33:09;;;;;;;1.10;1.00;;;;;;;-5.57;68.29;102790.44;4899012;29;20313;-67
2024/01/08 10:35:40;;;;;;;1.50;1.40;;;;;;;-5.59;68.29;102797.53;4900043;29;20296;-65
2024/01/08 10:38:11;;;;;;;0.90;0.73;;;;;;;-5.51;67.24;102792.84;4894909;29;20199;-67
2024/01/08 10:40:40;;;;;;;0.80;0.70;;;;;;;-5.57;67.28;102787.78;4893290;29;20656;-67
2024/01/08 10:43:09;;;;;;;0.80;0.52;;;;;;;-5.56;67.20;102786.84;4884820;29;20195;-67
2024/01/08 10:45:38;;;;;;;0.80;0.50;;;;;;;-5.59;66.76;102786.97;4898896;29;20210;-67
2024/01/08 10:48:12;;;;;;;1.25;1.15;;;;;;;-5.58;67.34;102793.97;4900461;29;20206;-66
2024/01/08 10:50:46;;;;;;;0.80;0.50;;;;;;;-5.46;66.98;102788.25;4901980;29;20193;-67
2024/01/08 10:53:29;;;;;;;0.80;0.50;;;;;;;-5.42;66.18;102792.53;4900651;29;20265;-67
2024/01/08 10:55:59;;;;;;;0.80;0.60;;;;;;;-5.54;65.97;102792.94;4898003;29;20226;-69
2024/01/08 10:58:35;;;;;;;0.80;0.60;;;;;;;-5.49;65.27;102794.53;4897238;29;20307;-67
2024/01/08 11:01:04;;;;;;;3.03;2.92;;;;;;;-5.35;65.77;102799.31;4911765;29;20189;-67
2024/01/08 11:03:33;;;;;;;2.30;1.75;;;;;;;-5.28;64.86;102806.09;4881929;29;20191;-68
2024/01/08 11:06:05;;;;;;;3.10;2.88;;;;;;;-5.31;64.73;102800.91;4887812;29;20229;-68
2024/01/08 11:08:36;;;;;;;2.08;1.98;;;;;;;-5.24;64.78;102805.09;4901378;29;20277;-66
2024/01/08 11:11:09;;;;;;;1.70;1.25;;;;;;;-5.07;63.68;102796.53;4890350;29;20201;-67
2024/01/08 11:13:41;;;;;;;1.33;1.23;;;;;;;-4.92;62.47;102794.19;4897520;29;20233;-66
2024/01/08 11:16:13;;;;;;;1.40;1.30;;;;;;;-4.80;61.51;102797.31;4897460;29;20284;-68
2024/01/08 11:18:42;;;;;;;1.15;1.05;;;;;;;-4.71;58.90;102797.81;4900424;29;20209;-66
2024/01/08 11:21:11;;;;;;;0.80;0.60;;;;;;;-4.79;58.60;102796.41;4892631;29;20194;-66
2024/01/08 11:23:42;;;;;;;0.90;0.60;;;;;;;-4.86;57.37;102799.25;4900392;29;20187;-66
2024/01/08 11:26:21;;;;;;;1.10;0.82;;;;;;;-4.77;57.65;102800.69;4889307;29;20249;-67
2024/01/08 11:29:03;;;;;;;6.28;0.98;;;;;;;-4.87;56.82;102805.47;4900167;29;20208;-67
2024/01/08 11:32:14;;;;;;;0.80;0.60;;;;;;;-4.75;56.39;102800.66;4894357;29;20286;-65
2024/01/08 11:34:59;;;;;;;1.00;0.88;;;;;;;-4.74;56.19;102797.09;4909482;29;20570;-67
2024/01/08 11:37:34;;;;;;;0.80;0.60;;;;;;;-4.74;55.26;102805.84;4898199;29;20563;-67